Time;durP1;ratioP1;P1;durP2;ratioP2;P2;SDS_P1;SDS_P2;PMS_P1;PMS_P2;Temp;Humidity;BMP_temperature;BMP_pressure;BME280_temperature;BME280_humidity;BME280_pressure;Samples;Min_cycle;Max_cycle;Signal;HPM_P1;HPM_P2
2023/09/16 00:01:20;;;;;;;15.73;8.57;;;;;;;20.84;80.67;95173.44;4802882;29;20190;-70
2023/09/16 00:03:46;;;;;;;14.02;8.02;;;;;;;20.88;80.51;95177.19;4803025;29;20263;-70
2023/09/16 00:06:12;;;;;;;11.23;7.88;;;;;;;20.77;80.37;95156.03;4786722;29;20192;-70
2023/09/16 00:08:38;;;;;;;14.32;9.00;;;;;;;20.88;80.00;95160.31;4788591;29;20433;-70
2023/09/16 00:11:04;;;;;;;12.43;8.48;;;;;;;20.99;79.68;95154.69;4784774;29;20249;-70
2023/09/16 00:13:29;;;;;;;9.68;7.25;;;;;;;21.01;79.85;95157.94;4784557;29;20237;-70
2023/09/16 00:15:55;;;;;;;12.95;7.97;;;;;;;21.01;79.49;95157.13;4784953;29;20208;-70
2023/09/16 00:18:21;;;;;;;10.68;8.10;;;;;;;20.99;79.77;95159.25;4784706;29;20184;-70
2023/09/16 00:20:49;;;;;;;13.55;7.80;;;;;;;20.93;79.91;95153.06;4784873;30;20671;-70
2023/09/16 00:23:16;;;;;;;11.43;7.50;;;;;;;20.96;80.31;95168.63;4802585;29;20569;-70
2023/09/16 00:25:42;;;;;;;10.05;7.22;;;;;;;20.95;80.45;95164.31;4802759;29;20764;-70
2023/09/16 00:28:07;;;;;;;14.40;8.32;;;;;;;20.94;80.69;95167.25;4802820;29;20188;-70
2023/09/16 00:30:34;;;;;;;12.23;8.70;;;;;;;20.80;81.26;95148.28;4802740;29;20176;-70
2023/09/16 00:33:00;;;;;;;12.45;7.97;;;;;;;20.91;81.08;95165.16;4802628;29;20229;-70
2023/09/16 00:35:25;;;;;;;11.07;8.07;;;;;;;20.84;81.32;95175.31;4802475;29;20675;-70
2023/09/16 00:37:50;;;;;;;12.02;7.80;;;;;;;20.80;82.11;95179.59;4802229;29;20198;-70
2023/09/16 00:40:17;;;;;;;11.18;7.72;;;;;;;20.68;81.77;95164.56;4802749;29;20630;-70
2023/09/16 00:42:42;;;;;;;11.15;7.93;;;;;;;20.75;82.31;95175.03;4802289;29;20172;-70
2023/09/16 00:45:12;;;;;;;9.02;7.28;;;;;;;20.72;82.45;95180.91;4802168;29;20661;-70
2023/09/16 00:47:40;;;;;;;13.07;8.15;;;;;;;20.75;82.62;95182.28;4805507;29;20741;-70
2023/09/16 00:50:07;;;;;;;12.75;8.50;;;;;;;20.73;82.28;95181.72;4805848;29;20172;-70
2023/09/16 00:52:34;;;;;;;15.95;9.35;;;;;;;20.54;83.17;95182.22;4805486;29;20511;-70
2023/09/16 00:54:59;;;;;;;11.32;8.05;;;;;;;20.49;83.94;95174.22;4805810;29;20208;-70
2023/09/16 00:57:25;;;;;;;15.57;8.80;;;;;;;20.31;84.40;95158.63;4805770;29;20208;-70
2023/09/16 00:59:50;;;;;;;12.48;8.88;;;;;;;20.25;85.31;95156.97;4805766;29;20199;-70
2023/09/16 01:02:17;;;;;;;14.43;8.63;;;;;;;20.21;85.27;95161.25;4805806;29;20617;-70
2023/09/16 01:04:43;;;;;;;12.27;8.82;;;;;;;20.20;85.81;95154.31;4804897;29;20431;-70
2023/09/16 01:07:09;;;;;;;10.90;8.50;;;;;;;20.16;86.12;95153.22;4789496;29;20233;-70
2023/09/16 01:09:35;;;;;;;11.93;8.48;;;;;;;19.95;86.74;95139.00;4805454;29;20846;-70
2023/09/16 01:12:00;;;;;;;11.45;7.80;;;;;;;20.09;86.48;95145.44;4805440;29;20239;-70
2023/09/16 01:14:26;;;;;;;16.10;7.95;;;;;;;20.17;85.93;95139.59;4805592;29;20293;-70
2023/09/16 01:16:59;;;;;;;9.07;7.35;;;;;;;20.13;85.60;95110.97;4805589;29;20184;-70
2023/09/16 01:19:41;;;;;;;11.10;7.00;;;;;;;20.21;85.15;95115.81;4805447;29;20184;-70
2023/09/16 01:22:09;;;;;;;9.85;8.15;;;;;;;20.40;84.38;95126.84;4805336;29;20237;-70
2023/09/16 01:24:34;;;;;;;11.63;8.73;;;;;;;20.48;83.53;95137.81;4794829;29;20294;-70
2023/09/16 01:26:59;;;;;;;12.48;8.38;;;;;;;20.50;83.31;95142.88;4801503;29;20333;-70
2023/09/16 01:29:26;;;;;;;14.43;9.07;;;;;;;20.47;83.48;95141.56;4804411;29;20591;-70
2023/09/16 01:31:54;;;;;;;12.18;8.48;;;;;;;20.39;83.91;95150.09;4805171;29;20469;-70
2023/09/16 01:34:23;;;;;;;11.52;8.38;;;;;;;20.40;83.72;95146.38;4805271;29;20261;-70
2023/09/16 01:36:52;;;;;;;11.13;8.55;;;;;;;20.42;83.92;95151.44;4805401;29;20191;-70
2023/09/16 01:39:21;;;;;;;11.48;8.38;;;;;;;20.37;83.67;95141.53;4799885;29;20208;-70
2023/09/16 01:41:50;;;;;;;11.55;9.27;;;;;;;20.46;83.30;95150.66;4805175;29;20198;-70
2023/09/16 01:44:15;;;;;;;11.15;8.55;;;;;;;20.52;83.29;95152.25;4805084;29;20389;-70
2023/09/16 01:46:41;;;;;;;13.03;8.93;;;;;;;20.55;82.65;95157.09;4803923;29;20438;-70
2023/09/16 01:49:06;;;;;;;11.43;7.85;;;;;;;20.66;82.23;95169.41;4804911;29;20543;-70
2023/09/16 01:51:31;;;;;;;15.38;8.50;;;;;;;20.71;81.51;95173.97;4804824;29;20200;-70
2023/09/16 01:53:57;;;;;;;11.55;7.88;;;;;;;20.71;81.38;95177.44;4788599;29;20622;-70
2023/09/16 01:56:22;;;;;;;11.57;7.90;;;;;;;20.73;81.50;95166.47;4804738;29;20271;-70
2023/09/16 01:58:47;;;;;;;13.77;7.93;;;;;;;20.70;81.32;95170.47;4804754;29;20722;-70
2023/09/16 02:01:14;;;;;;;8.95;7.25;;;;;;;20.73;81.95;95174.50;4804933;29;20180;-70
2023/09/16 02:03:40;;;;;;;14.52;8.85;;;;;;;20.71;81.54;95172.09;4804839;29;20189;-70
2023/09/16 02:06:06;;;;;;;10.55;7.70;;;;;;;20.61;81.60;95158.69;4804858;29;20183;-70
2023/09/16 02:08:31;;;;;;;12.02;7.82;;;;;;;20.70;81.28;95178.50;4804657;29;20247;-70
2023/09/16 02:10:57;;;;;;;15.38;7.82;;;;;;;20.69;81.34;95182.25;4804722;29;20188;-70
2023/09/16 02:13:22;;;;;;;11.18;8.70;;;;;;;20.71;81.65;95179.31;4804292;29;20306;-70
2023/09/16 02:15:48;;;;;;;11.65;8.52;;;;;;;20.64;81.88;95181.44;4804493;29;20199;-70
2023/09/16 02:18:13;;;;;;;15.93;9.63;;;;;;;20.56;81.96;95174.75;4804300;29;20221;-70
2023/09/16 02:20:38;;;;;;;12.57;8.23;;;;;;;20.49;81.73;95171.53;4804422;29;20187;-70
2023/09/16 02:23:04;;;;;;;12.25;8.50;;;;;;;20.50;81.22;95172.31;4798754;29;20632;-70
2023/09/16 02:25:32;;;;;;;9.50;7.65;;;;;;;20.50;81.06;95172.31;4786476;29;20184;-70
2023/09/16 02:27:58;;;;;;;8.77;7.05;;;;;;;20.47;81.45;95173.66;4770159;30;20195;-70
2023/09/16 02:30:23;;;;;;;11.13;7.55;;;;;;;20.36;81.39;95165.88;4786293;29;20180;-70
2023/09/16 02:32:48;;;;;;;10.57;7.15;;;;;;;20.41;81.69;95180.03;4786215;29;20238;-70
2023/09/16 02:35:14;;;;;;;16.08;8.10;;;;;;;20.40;81.71;95180.34;4784273;30;20236;-70
2023/09/16 02:37:39;;;;;;;13.35;7.97;;;;;;;20.37;81.87;95181.66;4786142;29;20212;-70
2023/09/16 02:40:05;;;;;;;13.70;7.93;;;;;;;20.34;81.68;95192.88;4786294;29;20180;-70
2023/09/16 02:42:31;;;;;;;9.52;6.90;;;;;;;20.31;81.68;95185.34;4786334;29;20249;-70
2023/09/16 02:44:56;;;;;;;7.38;6.57;;;;;;;20.29;81.77;95190.16;4785973;29;20188;-70
2023/09/16 02:47:22;;;;;;;11.07;7.60;;;;;;;20.28;81.77;95188.56;4785935;29;20184;-70
2023/09/16 02:49:47;;;;;;;9.50;6.80;;;;;;;20.27;81.63;95205.66;4785967;30;20180;-70
2023/09/16 02:52:14;;;;;;;9.15;7.00;;;;;;;20.22;81.64;95200.31;4785749;29;20235;-70
2023/09/16 02:54:39;;;;;;;12.68;7.38;;;;;;;20.22;81.66;95209.13;4785759;29;20184;-70
2023/09/16 02:57:05;;;;;;;10.48;6.55;;;;;;;20.19;81.76;95198.94;4785733;29;20184;-70
2023/09/16 02:59:30;;;;;;;9.98;6.68;;;;;;;20.10;81.61;95189.03;4785438;29;20184;-70
2023/09/16 03:01:56;;;;;;;8.88;6.53;;;;;;;20.16;81.64;95212.81;4785475;29;20172;-70
2023/09/16 03:04:21;;;;;;;8.70;6.47;;;;;;;20.14;81.90;95211.50;4785348;29;20241;-70
2023/09/16 03:06:46;;;;;;;10.80;6.78;;;;;;;20.15;81.87;95207.78;4785330;29;20191;-70
2023/09/16 03:09:12;;;;;;;6.43;5.68;;;;;;;20.16;82.46;95214.69;4784806;29;20233;-70
2023/09/16 03:11:38;;;;;;;10.63;7.18;;;;;;;20.19;82.08;95208.84;4785282;29;20673;-70
2023/09/16 03:14:03;;;;;;;9.00;6.60;;;;;;;20.21;82.30;95209.38;4785098;29;20569;-70
2023/09/16 03:16:31;;;;;;;9.87;7.50;;;;;;;19.90;82.53;95171.84;4785029;29;20464;-70
2023/09/16 03:18:57;;;;;;;12.05;8.50;;;;;;;20.04;82.60;95211.47;4785357;29;20264;-70
2023/09/16 03:21:24;;;;;;;7.97;6.50;;;;;;;20.08;82.42;95208.00;4785206;29;20267;-70
2023/09/16 03:23:49;;;;;;;11.15;7.13;;;;;;;20.12;81.92;95209.09;4785436;29;20185;-70
2023/09/16 03:26:17;;;;;;;14.52;6.80;;;;;;;20.15;82.50;95200.53;4785386;29;20188;-70
2023/09/16 03:28:45;;;;;;;11.32;7.50;;;;;;;20.16;82.34;95199.47;4785589;29;20974;-70
2023/09/16 03:31:11;;;;;;;11.10;7.00;;;;;;;20.16;81.87;95202.13;4783914;30;20315;-70
2023/09/16 03:33:37;;;;;;;12.75;7.43;;;;;;;20.15;82.15;95203.19;4789402;29;20344;-70
2023/09/16 03:36:04;;;;;;;10.63;7.30;;;;;;;20.16;82.10;95210.16;4803374;29;20180;-70
2023/09/16 03:38:30;;;;;;;9.40;6.95;;;;;;;20.19;81.74;95204.28;4787129;29;20577;-70
2023/09/16 03:40:57;;;;;;;10.52;6.68;;;;;;;20.19;81.92;95209.66;4802987;29;20192;-70
2023/09/16 03:43:22;;;;;;;31.65;19.27;;;;;;;20.20;81.99;95215.78;4803110;29;20668;-70
2023/09/16 03:45:48;;;;;;;17.42;11.85;;;;;;;20.18;81.87;95209.91;4789152;29;20263;-70
2023/09/16 03:48:13;;;;;;;19.35;12.77;;;;;;;20.17;81.70;95203.75;4785084;29;20553;-70
2023/09/16 03:50:39;;;;;;;10.15;8.13;;;;;;;20.21;82.20;95214.72;4785138;30;20185;-70
2023/09/16 03:53:05;;;;;;;21.50;15.35;;;;;;;20.22;82.70;95219.03;4784804;29;20196;-70
2023/09/16 03:55:30;;;;;;;18.83;11.13;;;;;;;20.06;82.80;95204.00;4784964;29;20227;-69
2023/09/16 03:57:56;;;;;;;22.90;14.65;;;;;;;20.23;82.80;95231.31;4785017;29;20177;-70
2023/09/16 04:00:21;;;;;;;17.15;10.73;;;;;;;20.19;83.28;95230.22;4784940;30;20189;-70
2023/09/16 04:02:47;;;;;;;12.70;8.05;;;;;;;20.20;83.72;95237.19;4785314;30;20191;-70
2023/09/16 04:05:13;;;;;;;25.08;14.50;;;;;;;20.19;83.53;95249.75;4784914;29;20604;-70
2023/09/16 04:07:39;;;;;;;14.80;10.98;;;;;;;20.17;84.35;95245.72;4784911;29;20275;-69
2023/09/16 04:10:06;;;;;;;18.02;12.23;;;;;;;20.18;84.54;95247.34;4785039;29;20317;-70
2023/09/16 04:12:32;;;;;;;16.50;11.70;;;;;;;20.15;85.38;95251.31;4784714;29;20239;-70
2023/09/16 04:14:57;;;;;;;17.35;10.70;;;;;;;20.10;85.97;95243.28;4784949;29;20184;-70
2023/09/16 04:17:23;;;;;;;21.70;13.45;;;;;;;20.13;86.32;95252.66;4784837;29;20545;-70
2023/09/16 04:19:48;;;;;;;16.02;10.13;;;;;;;20.10;87.20;95253.19;4785583;29;20294;-70
2023/09/16 04:22:14;;;;;;;13.02;9.02;;;;;;;20.03;87.59;95237.38;4788332;29;20573;-70
2023/09/16 04:24:39;;;;;;;16.85;12.75;;;;;;;20.06;87.94;95246.75;4788139;29;20193;-70
2023/09/16 04:27:04;;;;;;;18.10;11.60;;;;;;;19.96;87.59;95247.50;4788078;29;20275;-70
2023/09/16 04:29:30;;;;;;;16.48;11.35;;;;;;;19.94;88.35;95252.31;4788268;29;20180;-70
2023/09/16 04:31:56;;;;;;;30.50;20.17;;;;;;;19.92;89.41;95252.56;4788403;29;20204;-70
2023/09/16 04:34:22;;;;;;;20.67;14.70;;;;;;;19.94;90.00;95261.13;4791913;29;20187;-70
2023/09/16 04:36:48;;;;;;;15.25;11.30;;;;;;;19.95;89.78;95260.06;4792289;29;20180;-70
2023/09/16 04:39:14;;;;;;;18.20;13.07;;;;;;;19.94;90.16;95271.00;4788074;29;20169;-70
2023/09/16 04:41:40;;;;;;;13.25;11.05;;;;;;;19.91;89.87;95268.84;4788271;29;20274;-70
2023/09/16 04:44:08;;;;;;;19.10;10.15;;;;;;;19.80;90.96;95253.84;4788371;29;20259;-70
2023/09/16 04:46:33;;;;;;;15.27;11.15;;;;;;;19.84;90.73;95266.41;4787228;29;20176;-70
2023/09/16 04:49:04;;;;;;;14.27;9.68;;;;;;;19.73;90.49;95259.38;4787911;29;20190;-69
2023/09/16 04:51:30;;;;;;;17.08;9.88;;;;;;;19.69;90.84;95252.16;4788028;29;20200;-70
2023/09/16 04:53:56;;;;;;;12.77;10.70;;;;;;;19.56;91.27;95258.72;4771036;29;20429;-70
2023/09/16 04:56:22;;;;;;;13.63;10.07;;;;;;;19.45;92.20;95249.03;4786936;29;20196;-70
2023/09/16 04:58:49;;;;;;;17.20;13.75;;;;;;;19.47;93.18;95266.41;4785942;29;20433;-70
2023/09/16 05:01:14;;;;;;;17.63;11.15;;;;;;;19.47;93.49;95269.09;4797707;29;20602;-70
2023/09/16 05:03:40;;;;;;;18.05;11.45;;;;;;;19.54;94.01;95267.03;4804740;29;20184;-70
2023/09/16 05:06:05;;;;;;;16.63;11.57;;;;;;;19.56;93.58;95274.75;4788861;29;20180;-70
2023/09/16 05:08:31;;;;;;;17.25;11.95;;;;;;;19.60;93.60;95275.88;4805196;29;20653;-70
2023/09/16 05:10:57;;;;;;;17.67;11.57;;;;;;;19.56;94.05;95262.22;4805127;29;20184;-70
2023/09/16 05:13:23;;;;;;;27.15;19.45;;;;;;;19.64;94.45;95268.94;4792471;29;20256;-69
2023/09/16 05:15:52;;;;;;;16.75;11.98;;;;;;;19.67;93.33;95263.09;4787688;29;20985;-70
2023/09/16 05:18:18;;;;;;;13.70;9.85;;;;;;;19.64;94.39;95271.59;4787563;29;20244;-69
2023/09/16 05:20:43;;;;;;;16.80;10.48;;;;;;;19.66;94.54;95258.00;4787767;29;20189;-70
2023/09/16 05:23:12;;;;;;;14.10;11.53;;;;;;;19.67;94.29;95257.75;4786181;29;20560;-70
2023/09/16 05:25:45;;;;;;;15.98;10.55;;;;;;;19.55;93.36;95257.94;4772017;30;20192;-69
2023/09/16 05:28:10;;;;;;;13.27;10.60;;;;;;;19.48;94.33;95275.25;4785736;29;20703;-69
2023/09/16 05:30:36;;;;;;;16.35;10.77;;;;;;;19.35;94.98;95283.66;4787411;29;20196;-70
2023/09/16 05:33:02;;;;;;;17.17;11.73;;;;;;;19.40;95.86;95281.03;4786924;29;20261;-69
2023/09/16 05:35:27;;;;;;;15.35;11.00;;;;;;;19.34;95.77;95292.72;4785899;29;20187;-70
2023/09/16 05:37:53;;;;;;;17.73;10.80;;;;;;;19.31;96.33;95288.69;4787506;29;20180;-70
2023/09/16 05:40:18;;;;;;;14.98;10.75;;;;;;;19.30;96.54;95281.75;4771012;29;21039;-69
2023/09/16 05:42:45;;;;;;;18.23;12.03;;;;;;;19.28;96.55;95289.22;4786624;29;20425;-69
2023/09/16 05:45:11;;;;;;;20.63;12.70;;;;;;;19.25;97.01;95300.41;4786841;30;20437;-69
2023/09/16 05:47:36;;;;;;;29.23;18.90;;;;;;;19.25;98.19;95305.75;4786813;30;20187;-69
2023/09/16 05:50:03;;;;;;;18.95;14.18;;;;;;;19.33;99.01;95313.28;4784867;29;20279;-69
2023/09/16 05:52:28;;;;;;;17.98;12.73;;;;;;;19.36;98.71;95299.44;4786730;29;20634;-69
2023/09/16 05:54:54;;;;;;;19.00;12.23;;;;;;;19.46;98.93;95299.50;4786662;29;20185;-69
2023/09/16 05:57:19;;;;;;;29.00;13.85;;;;;;;19.51;98.74;95298.78;4786823;29;20181;-69
2023/09/16 05:59:45;;;;;;;25.75;14.35;;;;;;;19.55;98.75;95306.00;4786803;29;20184;-68
2023/09/16 06:02:10;;;;;;;25.13;16.98;;;;;;;;;;4786756;29;20172;-68
2023/09/16 06:04:35;;;;;;;29.00;18.77;;;;;;;19.56;98.90;95310.28;4786681;29;20200;-69
2023/09/16 06:07:01;;;;;;;27.38;17.38;;;;;;;19.60;98.75;95310.59;4786668;29;20223;-68
2023/09/16 06:09:26;;;;;;;23.58;16.02;;;;;;;19.62;99.10;95300.47;4786677;29;20187;-69
2023/09/16 06:11:52;;;;;;;18.50;12.85;;;;;;;19.64;98.51;95295.66;4786343;29;20267;-69
2023/09/16 06:14:17;;;;;;;21.08;13.25;;;;;;;19.67;98.49;95287.13;4800198;29;20180;-69
2023/09/16 06:16:43;;;;;;;23.42;14.25;;;;;;;19.69;98.14;95290.38;4804900;29;20188;-70
2023/09/16 06:19:08;;;;;;;19.98;13.38;;;;;;;19.70;98.01;95286.63;4804605;29;20187;-70
2023/09/16 06:21:34;;;;;;;16.13;11.82;;;;;;;19.61;97.58;95258.78;4804369;29;20183;-70
2023/09/16 06:23:59;;;;;;;17.07;13.30;;;;;;;19.69;96.40;95262.84;4803502;29;20427;-70
2023/09/16 06:26:25;;;;;;;18.70;14.70;;;;;;;19.63;95.96;95270.03;4803374;29;20434;-70
2023/09/16 06:28:50;;;;;;;19.77;15.00;;;;;;;19.39;97.06;95252.72;4803688;29;20442;-70
2023/09/16 06:31:16;;;;;;;19.48;15.23;;;;;;;19.42;97.77;95278.91;4786897;29;20970;-70
2023/09/16 06:33:41;;;;;;;17.98;13.23;;;;;;;19.45;98.43;95294.44;4788095;29;20187;-70
2023/09/16 06:36:07;;;;;;;18.73;13.27;;;;;;;19.42;98.03;95290.41;4804201;29;20237;-70
2023/09/16 06:38:32;;;;;;;25.55;14.88;;;;;;;19.35;98.09;95310.38;4804026;29;20259;-69
2023/09/16 06:40:58;;;;;;;17.50;13.82;;;;;;;19.43;99.48;95315.22;4804039;29;20186;-70
2023/09/16 06:43:23;;;;;;;20.88;14.77;;;;;;;19.53;100.00;95313.50;4803304;29;20610;-70
2023/09/16 06:45:50;;;;;;;20.13;14.90;;;;;;;19.68;100.00;95317.34;4804142;29;20653;-70
2023/09/16 06:48:16;;;;;;;27.10;15.88;;;;;;;19.75;100.00;95316.03;4803953;29;20184;-70
2023/09/16 06:50:42;;;;;;;21.67;15.63;;;;;;;19.82;99.91;95311.28;4803720;29;20686;-70
2023/09/16 06:53:08;;;;;;;22.75;15.48;;;;;;;20.00;99.77;95334.13;4794526;29;20235;-70
2023/09/16 06:55:33;;;;;;;22.63;15.25;;;;;;;20.05;98.83;95336.84;4786064;29;20204;-70
2023/09/16 06:57:59;;;;;;;25.05;14.82;;;;;;;20.06;98.24;95343.81;4769743;30;20180;-70
2023/09/16 07:00:24;;;;;;;21.70;15.32;;;;;;;20.07;97.75;95342.72;4785887;29;20177;-70
2023/09/16 07:02:50;;;;;;;20.65;13.77;;;;;;;20.09;97.01;95337.13;4785842;29;20210;-70
2023/09/16 07:05:15;;;;;;;29.52;15.05;;;;;;;20.08;96.57;95332.81;4785869;29;20180;-70
2023/09/16 07:07:41;;;;;;;22.98;14.70;;;;;;;20.00;95.50;95327.97;4786003;29;20199;-70
2023/09/16 07:10:08;;;;;;;20.30;13.80;;;;;;;19.86;95.52;95320.41;4785903;29;20191;-69
2023/09/16 07:12:33;;;;;;;26.10;14.60;;;;;;;19.77;95.78;95324.63;4785484;29;20229;-70
2023/09/16 07:14:59;;;;;;;21.30;14.98;;;;;;;19.69;96.53;95325.09;4785756;29;20169;-70
2023/09/16 07:17:24;;;;;;;33.30;20.08;;;;;;;19.67;96.99;95323.72;4785468;29;20180;-70
2023/09/16 07:19:49;;;;;;;36.28;21.38;;;;;;;19.70;97.28;95329.38;4785562;29;20618;-70
2023/09/16 07:22:15;;;;;;;29.25;17.02;;;;;;;19.72;97.33;95324.56;4785429;30;20183;-70
2023/09/16 07:24:40;;;;;;;26.35;15.98;;;;;;;19.71;97.69;95324.84;4785465;29;20182;-70
2023/09/16 07:27:06;;;;;;;25.25;17.02;;;;;;;19.70;97.53;95324.03;4785399;30;20169;-70
2023/09/16 07:29:31;;;;;;;23.92;16.67;;;;;;;19.71;98.30;95314.16;4769426;30;20253;-69
2023/09/16 07:31:56;;;;;;;29.13;18.42;;;;;;;19.62;98.76;95316.50;4785363;29;20277;-70
2023/09/16 07:34:22;;;;;;;24.88;16.83;;;;;;;19.57;99.50;95314.56;4785167;29;20176;-70
2023/09/16 07:36:49;;;;;;;26.77;17.25;;;;;;;19.46;100.00;95314.75;4785482;30;20249;-69
2023/09/16 07:39:14;;;;;;;25.58;16.23;;;;;;;19.26;100.00;95318.03;4785186;29;20184;-69
2023/09/16 07:41:41;;;;;;;23.13;17.77;;;;;;;19.16;100.00;95317.94;4785258;29;20181;-70
2023/09/16 07:44:07;;;;;;;23.08;17.45;;;;;;;19.17;100.00;95328.38;4785040;29;20658;-69
2023/09/16 07:46:34;;;;;;;29.40;18.25;;;;;;;19.30;100.00;95343.16;4784290;29;20268;-70
2023/09/16 07:48:59;;;;;;;58.67;38.17;;;;;;;19.44;100.00;95340.88;4787103;29;20629;-70
2023/09/16 07:51:25;;;;;;;32.42;21.05;;;;;;;19.66;100.00;95349.63;4795916;29;20176;-69
2023/09/16 07:53:50;;;;;;;29.10;21.77;;;;;;;19.86;100.00;95352.47;4790846;29;20215;-68
2023/09/16 07:56:18;;;;;;;30.98;19.05;;;;;;;20.03;100.00;95348.84;4792628;29;20271;-69
2023/09/16 07:58:43;;;;;;;25.92;17.05;;;;;;;20.15;99.92;95349.47;4792570;29;20202;-70
2023/09/16 08:01:09;;;;;;;24.98;17.42;;;;;;;20.24;98.61;95348.69;4790539;29;20177;-70
2023/09/16 08:03:37;;;;;;;22.70;15.98;;;;;;;20.16;97.32;95349.19;4792512;29;20237;-70
2023/09/16 08:06:03;;;;;;;24.17;18.65;;;;;;;20.16;98.12;95354.53;4774994;29;20617;-70
2023/09/16 08:08:29;;;;;;;18.88;15.25;;;;;;;20.14;96.51;95347.84;4789688;29;20252;-70
2023/09/16 08:10:54;;;;;;;23.17;16.17;;;;;;;20.11;96.36;95340.34;4789655;29;20181;-70
2023/09/16 08:13:19;;;;;;;23.30;17.17;;;;;;;20.23;96.01;95351.66;4786147;29;20717;-70
2023/09/16 08:15:45;;;;;;;23.63;15.27;;;;;;;20.28;96.31;95349.00;4788235;29;20177;-70
2023/09/16 08:18:10;;;;;;;21.50;15.70;;;;;;;20.33;95.76;95340.97;4793649;29;20638;-70
2023/09/16 08:20:36;;;;;;;27.52;17.02;;;;;;;20.41;95.54;95335.16;4791858;29;20192;-70
2023/09/16 08:23:01;;;;;;;27.33;17.05;;;;;;;20.44;95.96;95334.66;4792285;29;20188;-70
2023/09/16 08:25:27;;;;;;;23.15;17.95;;;;;;;20.61;96.88;95337.16;4791574;29;20185;-69
2023/09/16 08:27:52;;;;;;;24.67;17.67;;;;;;;20.70;94.73;95343.59;4786897;29;20192;-69
2023/09/16 08:30:18;;;;;;;22.42;16.42;;;;;;;20.98;95.96;95345.03;4784920;29;20205;-70
2023/09/16 08:32:43;;;;;;;23.48;16.33;;;;;;;21.11;92.42;95352.56;4784793;29;20230;-69
2023/09/16 08:35:09;;;;;;;20.38;15.65;;;;;;;21.08;90.88;95334.38;4789123;29;20279;-70
2023/09/16 08:37:35;;;;;;;20.50;14.45;;;;;;;21.20;88.81;95360.91;4802218;29;20582;-70
2023/09/16 08:40:01;;;;;;;20.10;15.95;;;;;;;21.29;90.77;95360.13;4784723;29;20189;-71
2023/09/16 08:42:33;;;;;;;21.40;15.68;;;;;;;21.25;91.33;95363.63;4769622;29;20223;-70
2023/09/16 08:45:06;;;;;;;21.33;15.23;;;;;;;21.20;91.14;95355.56;4786457;29;20203;-71
2023/09/16 08:47:33;;;;;;;20.30;14.65;;;;;;;21.30;91.35;95364.41;4784633;29;20711;-71
2023/09/16 08:50:05;;;;;;;24.67;16.48;;;;;;;21.27;90.24;95370.31;4782583;29;20191;-70
2023/09/16 08:52:40;;;;;;;22.50;15.57;;;;;;;21.25;90.24;95382.38;4784173;29;20236;-70
2023/09/16 08:55:10;;;;;;;23.23;15.68;;;;;;;21.15;89.87;95380.44;4782583;30;20194;-70
2023/09/16 08:57:36;;;;;;;22.90;15.73;;;;;;;21.01;89.96;95387.38;4784390;29;20687;-70
2023/09/16 09:00:03;;;;;;;18.90;14.63;;;;;;;21.00;91.96;95381.19;4788449;29;20274;-71
2023/09/16 09:02:29;;;;;;;22.23;14.65;;;;;;;20.91;91.19;95382.78;4802431;29;20179;-71
2023/09/16 09:04:55;;;;;;;17.65;14.40;;;;;;;20.89;92.22;95368.03;4802030;29;20183;-71
2023/09/16 09:07:22;;;;;;;19.20;14.05;;;;;;;20.93;91.46;95363.78;4803629;29;20187;-71
2023/09/16 09:09:48;;;;;;;19.92;14.65;;;;;;;21.10;92.13;95380.44;4805692;29;20255;-71
2023/09/16 09:12:13;;;;;;;19.85;14.77;;;;;;;21.09;92.57;95368.91;4805466;29;20330;-70
2023/09/16 09:14:39;;;;;;;17.45;13.63;;;;;;;21.29;89.80;95386.13;4805646;29;20349;-71
2023/09/16 09:17:09;;;;;;;19.15;13.73;;;;;;;21.19;89.03;95378.06;4805546;29;20196;-71
2023/09/16 09:19:35;;;;;;;18.80;14.27;;;;;;;21.28;89.29;95382.63;4805341;29;20184;-71
2023/09/16 09:22:01;;;;;;;16.73;13.05;;;;;;;21.66;88.63;95388.59;4798888;29;20183;-71
2023/09/16 09:24:27;;;;;;;13.50;10.40;;;;;;;22.00;86.52;95388.91;4794112;29;20195;-71
2023/09/16 09:26:52;;;;;;;13.55;11.13;;;;;;;22.18;84.62;95383.78;4794072;29;20199;-70
2023/09/16 09:29:18;;;;;;;13.10;10.13;;;;;;;22.26;82.82;95393.16;4787111;29;20666;-71
2023/09/16 09:31:44;;;;;;;17.63;10.40;;;;;;;22.32;84.60;95364.44;4787562;29;20346;-71
2023/09/16 09:34:18;;;;;;;17.38;10.82;;;;;;;22.48;80.97;95396.34;4787201;29;20223;-71
2023/09/16 09:36:47;;;;;;;17.38;9.32;;;;;;;22.24;80.33;95389.13;4793348;29;20604;-71
2023/09/16 09:39:12;;;;;;;16.70;9.27;;;;;;;22.18;82.73;95382.97;4805337;29;20188;-71
2023/09/16 09:41:46;;;;;;;11.90;10.25;;;;;;;22.17;84.38;95376.00;4805133;29;20264;-71
2023/09/16 09:44:15;;;;;;;13.90;10.13;;;;;;;22.31;82.95;95377.06;4805009;29;20584;-70
2023/09/16 09:46:41;;;;;;;14.73;9.32;;;;;;;22.45;82.03;95367.38;4786936;29;20692;-71
2023/09/16 09:49:08;;;;;;;11.82;10.02;;;;;;;22.83;82.81;95363.22;4786988;29;20185;-71
2023/09/16 09:51:34;;;;;;;15.18;10.27;;;;;;;23.37;81.13;95367.78;4786830;29;20620;-71
2023/09/16 09:53:59;;;;;;;11.93;9.20;;;;;;;23.85;80.00;95371.53;4787031;29;20223;-71
2023/09/16 09:56:25;;;;;;;13.23;9.55;;;;;;;24.01;75.37;95374.88;4786733;29;20220;-71
2023/09/16 09:58:50;;;;;;;11.52;9.32;;;;;;;23.92;74.27;95379.28;4770754;30;20253;-71
2023/09/16 10:01:16;;;;;;;12.18;8.98;;;;;;;23.77;75.29;95364.06;4786739;29;20219;-71
2023/09/16 10:03:50;;;;;;;12.43;9.75;;;;;;;23.92;76.41;95376.59;4793942;29;20215;-70
2023/09/16 10:06:17;;;;;;;11.88;9.25;;;;;;;23.91;74.96;95373.09;4791234;29;20184;-71
2023/09/16 10:08:43;;;;;;;8.55;7.22;;;;;;;23.89;71.81;95371.75;4789197;29;20228;-71
2023/09/16 10:11:10;;;;;;;7.63;6.72;;;;;;;23.83;71.39;95365.63;4786852;29;20200;-70
2023/09/16 10:13:36;;;;;;;10.38;7.28;;;;;;;23.83;70.87;95368.31;4791454;29;20232;-70
2023/09/16 10:16:02;;;;;;;10.63;7.30;;;;;;;23.73;71.67;95371.06;4785021;29;20242;-70
2023/09/16 10:18:28;;;;;;;12.57;7.07;;;;;;;23.83;71.28;95356.75;4788369;29;20184;-70
2023/09/16 10:20:54;;;;;;;8.10;7.13;;;;;;;23.85;72.88;95338.44;4793205;29;20324;-70
2023/09/16 10:23:20;;;;;;;10.75;7.40;;;;;;;23.59;71.08;95356.66;4793120;29;20637;-70
2023/09/16 10:25:46;;;;;;;8.60;7.05;;;;;;;23.51;71.92;95358.06;4795043;29;20173;-70
2023/09/16 10:28:12;;;;;;;8.70;7.80;;;;;;;23.26;73.29;95355.53;4786444;29;20656;-70
2023/09/16 10:30:38;;;;;;;12.30;7.82;;;;;;;23.12;74.67;95358.00;4786292;29;20548;-70
2023/09/16 10:33:09;;;;;;;11.32;7.10;;;;;;;23.02;73.92;95341.94;4786243;29;20211;-70
2023/09/16 10:35:37;;;;;;;11.95;7.95;;;;;;;23.18;75.00;95339.97;4794302;29;20188;-70
2023/09/16 10:38:05;;;;;;;12.63;6.03;;;;;;;23.37;72.78;95353.56;4792202;29;20184;-70
2023/09/16 10:40:32;;;;;;;10.88;6.90;;;;;;;23.38;73.09;95349.78;4794136;29;20184;-70
2023/09/16 10:42:58;;;;;;;7.97;6.35;;;;;;;23.36;72.50;95352.75;4777218;29;20180;-69
2023/09/16 10:45:25;;;;;;;8.60;6.45;;;;;;;23.30;72.45;95345.81;4794490;29;20187;-69
2023/09/16 10:47:53;;;;;;;7.43;5.78;;;;;;;23.32;72.01;95341.78;4793999;29;20679;-70
2023/09/16 10:50:24;;;;;;;12.48;6.75;;;;;;;23.33;71.48;95337.19;4792177;29;20626;-68
2023/09/16 10:53:02;;;;;;;13.82;7.53;;;;;;;23.27;72.79;95330.22;4787708;29;20223;-69
2023/09/16 10:55:38;;;;;;;7.65;6.47;;;;;;;23.22;72.85;95332.97;4785884;29;20185;-69
2023/09/16 10:58:21;;;;;;;8.60;6.13;;;;;;;23.35;72.21;95329.66;4769547;30;20184;-68
2023/09/16 11:00:54;;;;;;;5.85;4.85;;;;;;;23.36;69.47;95317.00;4783972;29;20201;-68
2023/09/16 11:03:24;;;;;;;8.23;5.82;;;;;;;23.60;69.90;95321.44;4785872;29;20250;-69
2023/09/16 11:05:50;;;;;;;15.80;7.72;;;;;;;23.89;72.56;95323.34;4785792;29;20188;-69
2023/09/16 11:08:16;;;;;;;7.05;5.22;;;;;;;24.11;69.32;95320.19;4791396;29;20292;-69
2023/09/16 11:10:42;;;;;;;9.55;5.35;;;;;;;24.26;68.08;95307.41;4804001;29;20244;-69
2023/09/16 11:13:08;;;;;;;7.03;4.68;;;;;;;24.35;66.19;95310.28;4803089;29;20266;-68
2023/09/16 11:15:35;;;;;;;5.45;4.05;;;;;;;24.12;66.57;95317.22;4787079;29;20640;-68
2023/09/16 11:18:10;;;;;;;6.45;5.13;;;;;;;24.11;67.75;95304.84;4803082;29;20179;-68